Time;durP1;ratioP1;P1;durP2;ratioP2;P2;SDS_P1;SDS_P2;PMS_P1;PMS_P2;Temp;Humidity;BMP_temperature;BMP_pressure;BME280_temperature;BME280_humidity;BME280_pressure;Samples;Min_cycle;Max_cycle;Signal;HPM_P1;HPM_P2
2023/09/07 00:00:10;;;;;;;24.67;15.37;;;15.60;99.90;15.00;101554;;;;606887;232;24052;-77
2023/09/07 00:02:36;;;;;;;17.77;14.00;;;15.50;99.90;14.90;101555;;;;595660;237;24029;-77
2023/09/07 00:05:06;;;;;;;21.87;13.53;;;15.60;99.90;15.00;101551;;;;606711;232;24025;-76
2023/09/07 00:07:33;;;;;;;23.97;14.33;;;15.60;99.90;15.00;101548;;;;606268;232;24003;-77
2023/09/07 00:10:03;;;;;;;24.07;13.97;;;15.60;99.90;15.00;101550;;;;606579;232;24009;-77
2023/09/07 00:12:34;;;;;;;20.23;13.97;;;15.60;99.90;14.90;101543;;;;606273;232;24016;-76
2023/09/07 00:15:00;;;;;;;22.93;13.60;;;15.50;99.90;14.90;101548;;;;606637;232;24046;-75
2023/09/07 00:17:28;;;;;;;24.60;14.30;;;15.50;99.90;14.90;101543;;;;607409;232;24052;-76
2023/09/07 00:19:58;;;;;;;18.87;14.17;;;15.50;99.90;14.90;101549;;;;607218;232;23981;-75
2023/09/07 00:22:27;;;;;;;21.73;14.77;;;15.50;99.90;14.90;101557;;;;607579;232;24059;-74
2023/09/07 00:24:55;;;;;;;24.13;14.13;;;15.50;99.90;14.90;101554;;;;607426;232;24085;-75
2023/09/07 00:27:23;;;;;;;23.97;14.83;;;15.50;99.90;14.90;101557;;;;606992;232;23991;-77
2023/09/07 00:29:51;;;;;;;25.17;15.93;;;15.50;99.90;14.90;101557;;;;606552;232;23995;-77
2023/09/07 00:32:20;;;;;;;25.27;14.27;;;15.50;99.90;14.90;101555;;;;606967;232;24182;-77
2023/09/07 00:34:48;;;;;;;25.60;14.93;;;15.50;99.90;14.90;101552;;;;606946;232;24006;-77
2023/09/07 00:37:16;;;;;;;25.73;14.10;;;15.50;99.90;14.90;101550;;;;606962;232;24060;-77
2023/09/07 00:39:44;;;;;;;26.23;14.53;;;15.50;99.90;14.80;101551;;;;606933;232;24020;-77
2023/09/07 00:42:13;;;;;;;27.10;14.73;;;15.50;99.90;14.90;101557;;;;608243;232;24138;-76
2023/09/07 00:44:42;;;;;;;25.70;14.40;;;15.50;99.90;14.90;101564;;;;607783;232;23994;-76
2023/09/07 00:47:10;;;;;;;30.70;15.13;;;15.50;99.90;14.90;101555;;;;607373;232;24105;-77
2023/09/07 00:49:37;;;;;;;34.87;15.07;;;15.50;99.90;15.00;101559;;;;607499;232;24053;-76
2023/09/07 00:52:05;;;;;;;25.50;14.97;;;15.50;99.90;15.00;101554;;;;606960;232;24021;-76
2023/09/07 00:54:34;;;;;;;32.67;16.33;;;15.60;99.90;15.00;101555;;;;607266;232;23991;-76
2023/09/07 00:57:02;;;;;;;26.67;14.77;;;15.60;99.90;15.10;101560;;;;606986;232;24049;-76
2023/09/07 00:59:29;;;;;;;32.67;16.57;;;15.60;99.90;15.10;101561;;;;606855;232;24052;-76
2023/09/07 01:01:57;;;;;;;36.97;17.53;;;15.70;99.90;15.10;101556;;;;606839;232;24023;-76
2023/09/07 01:04:25;;;;;;;31.87;17.60;;;15.70;99.90;15.10;101555;;;;606961;232;24117;-76
2023/09/07 01:06:56;;;;;;;32.10;18.77;;;15.70;99.90;15.10;101559;;;;606929;232;24005;-76
2023/09/07 01:09:24;;;;;;;36.43;17.83;;;15.70;99.90;15.10;101555;;;;606136;232;24075;-76
2023/09/07 01:11:52;;;;;;;30.67;19.07;;;15.70;99.90;15.20;101563;;;;606733;232;24044;-76
2023/09/07 01:14:20;;;;;;;37.00;20.20;;;15.70;99.90;15.30;101560;;;;606784;232;24078;-75
2023/09/07 01:16:47;;;;;;;34.63;17.13;;;15.80;99.90;15.30;101551;;;;607001;232;24083;-76
2023/09/07 01:19:15;;;;;;;37.33;18.57;;;15.90;99.90;15.40;101554;;;;616693;232;23990;-76
2023/09/07 01:21:43;;;;;;;33.37;19.23;;;16.00;99.90;15.50;101558;;;;606873;232;25039;-76
2023/09/07 01:24:11;;;;;;;32.40;17.37;;;16.10;99.90;15.60;101552;;;;606879;232;24193;-76
2023/09/07 01:26:39;;;;;;;36.93;18.50;;;16.10;99.90;15.70;101558;;;;606879;232;24041;-76
2023/09/07 01:29:08;;;;;;;36.97;18.27;;;16.30;99.90;15.70;101557;;;;606930;232;24074;-75
2023/09/07 01:31:37;;;;;;;33.27;17.93;;;16.40;99.90;15.80;101570;;;;606867;232;24017;-75
2023/09/07 01:34:04;;;;;;;34.40;18.07;;;16.30;99.90;15.90;101558;;;;606374;232;23995;-76
2023/09/07 01:36:32;;;;;;;28.70;17.53;;;16.40;99.90;15.90;101560;;;;606494;232;24038;-75
2023/09/07 01:39:00;;;;;;;30.13;16.90;;;16.50;99.90;16.00;101562;;;;606525;232;24062;-76
2023/09/07 01:41:29;;;;;;;30.30;18.77;;;16.50;99.90;16.00;101563;;;;606280;232;23029;-74
2023/09/07 01:43:56;;;;;;;25.03;16.53;;;16.60;99.90;16.10;101569;;;;606464;232;23996;-75
2023/09/07 01:46:24;;;;;;;31.80;17.83;;;16.70;99.90;16.20;101562;;;;606924;232;23994;-75
2023/09/07 01:48:52;;;;;;;35.43;19.70;;;16.70;99.90;16.20;101568;;;;606934;232;24085;-75
2023/09/07 01:51:20;;;;;;;31.10;17.73;;;16.80;99.90;16.30;101562;;;;606916;232;24078;-76
2023/09/07 01:53:51;;;;;;;30.77;17.67;;;16.80;99.90;16.30;101565;;;;608238;232;23996;-75
2023/09/07 01:56:19;;;;;;;29.40;18.00;;;16.90;99.90;16.30;101572;;;;607778;232;24036;-76
2023/09/07 01:58:47;;;;;;;28.93;18.47;;;16.80;99.90;16.30;101567;;;;607825;232;24048;-76
2023/09/07 02:01:24;;;;;;;32.43;19.47;;;16.90;99.90;16.30;101565;;;;607806;232;24002;-75
2023/09/07 02:03:55;;;;;;;30.10;18.60;;;16.90;99.90;16.30;101567;;;;607077;232;24024;-75
2023/09/07 02:06:20;;;;;;;36.60;18.40;;;16.90;99.90;16.30;101559;;;;606750;232;23991;-76
2023/09/07 02:08:48;;;;;;;26.17;17.77;;;16.90;99.90;16.40;101558;;;;607027;232;24042;-76
2023/09/07 02:11:16;;;;;;;32.63;18.00;;;16.90;99.90;16.40;101556;;;;607058;232;23975;-76
2023/09/07 02:13:44;;;;;;;32.07;17.00;;;16.90;99.90;16.40;101565;;;;606795;232;24016;-76
2023/09/07 02:16:12;;;;;;;31.97;18.20;;;16.90;99.90;16.40;101569;;;;606626;232;24098;-76
2023/09/07 02:18:46;;;;;;;36.43;18.93;;;16.90;99.90;16.40;101566;;;;607235;232;23983;-75
2023/09/07 02:21:13;;;;;;;25.53;18.27;;;16.90;99.90;16.40;101573;;;;607047;232;24002;-76
2023/09/07 02:23:38;;;;;;;33.87;19.43;;;17.00;99.90;16.50;101564;;;;607051;232;23986;-75
2023/09/07 02:26:06;;;;;;;26.17;18.27;;;17.00;99.90;16.50;101571;;;;607211;232;24047;-76
2023/09/07 02:28:34;;;;;;;33.13;19.00;;;17.00;99.90;16.50;101568;;;;607133;232;23979;-76
2023/09/07 02:31:08;;;;;;;31.50;18.23;;;17.10;99.90;16.60;101570;;;;606941;232;24033;-75
2023/09/07 02:33:33;;;;;;;29.43;17.27;;;17.10;99.90;16.60;101579;;;;606505;232;24045;-76
2023/09/07 02:36:01;;;;;;;30.03;18.03;;;17.20;99.90;16.70;101578;;;;606461;232;25052;-76
2023/09/07 02:38:29;;;;;;;33.37;18.63;;;17.20;99.90;16.70;101579;;;;606464;232;24015;-76
2023/09/07 02:40:57;;;;;;;23.30;16.50;;;17.30;99.90;16.70;101577;;;;606633;232;24042;-76
2023/09/07 02:43:24;;;;;;;27.47;18.00;;;17.20;99.90;16.70;101580;;;;606466;232;23982;-76
2023/09/07 02:45:52;;;;;;;30.80;17.77;;;17.20;99.90;16.70;101572;;;;606904;232;24058;-76
2023/09/07 02:48:20;;;;;;;27.77;17.70;;;17.20;99.90;16.70;101576;;;;606866;232;24008;-76
2023/09/07 02:50:50;;;;;;;25.93;19.83;;;17.20;99.90;16.70;101570;;;;606960;232;23014;-75
2023/09/07 02:53:19;;;;;;;39.23;20.83;;;17.20;99.90;16.70;101572;;;;606908;232;23985;-77
2023/09/07 02:55:44;;;;;;;27.03;17.67;;;17.20;99.90;16.60;101576;;;;606689;232;23052;-77
2023/09/07 02:58:12;;;;;;;36.37;19.83;;;17.20;99.90;16.60;101563;;;;607099;232;24050;-76
2023/09/07 03:00:47;;;;;;;39.07;24.37;;;17.20;99.90;16.60;101566;;;;607012;232;24027;-76
2023/09/07 03:03:13;;;;;;;48.43;31.70;;;17.20;99.90;16.60;101573;;;;606403;232;24069;-77
2023/09/07 03:05:41;;;;;;;35.33;21.27;;;17.10;99.90;16.70;101566;;;;608444;232;23989;-77
2023/09/07 03:08:09;;;;;;;32.63;20.73;;;17.20;99.90;16.70;101571;;;;607459;232;24044;-76
2023/09/07 03:10:40;;;;;;;35.97;21.73;;;17.20;99.90;16.70;101570;;;;607456;232;23974;-76
2023/09/07 03:13:08;;;;;;;38.67;21.27;;;17.20;99.90;16.70;101564;;;;607195;232;24037;-76
2023/09/07 03:15:37;;;;;;;37.60;21.83;;;17.20;99.90;16.70;101565;;;;607106;232;23982;-77
2023/09/07 03:18:04;;;;;;;43.40;22.30;;;17.20;99.90;16.70;101566;;;;607042;232;23998;-77
2023/09/07 03:20:32;;;;;;;37.67;22.63;;;17.20;99.90;16.70;101568;;;;607536;232;24014;-76
2023/09/07 03:23:00;;;;;;;37.03;23.03;;;17.20;99.90;16.70;101565;;;;607276;232;24052;-78
2023/09/07 03:25:28;;;;;;;34.63;21.70;;;17.20;99.90;16.70;101562;;;;607166;232;23971;-78
2023/09/07 03:27:56;;;;;;;29.83;21.03;;;17.20;99.90;16.70;101568;;;;607189;232;24039;-76
2023/09/07 03:30:23;;;;;;;34.70;20.93;;;17.20;99.90;16.70;101571;;;;607220;232;24006;-76
2023/09/07 03:32:52;;;;;;;38.57;22.23;;;17.20;99.90;16.70;101577;;;;607186;232;23990;-76
2023/09/07 03:35:20;;;;;;;36.93;22.30;;;17.20;99.90;16.70;101574;;;;607153;232;23999;-76
2023/09/07 03:37:48;;;;;;;33.57;20.60;;;17.20;99.90;16.70;101577;;;;606684;232;25051;-76
2023/09/07 03:40:16;;;;;;;31.23;19.53;;;17.20;99.90;16.70;101568;;;;606711;232;24100;-77
2023/09/07 03:42:46;;;;;;;35.83;21.13;;;17.30;99.90;16.70;101570;;;;606428;232;24007;-76
2023/09/07 03:45:16;;;;;;;33.63;20.37;;;17.30;99.90;16.80;101568;;;;606579;232;23994;-76
2023/09/07 03:47:43;;;;;;;28.07;16.07;;;17.30;99.90;16.80;101578;;;;606209;232;24000;-77
2023/09/07 03:50:11;;;;;;;27.20;19.63;;;17.30;99.90;16.80;101582;;;;606783;232;23029;-76
2023/09/07 03:52:36;;;;;;;28.30;17.77;;;17.30;99.90;16.90;101584;;;;606528;232;24012;-76
2023/09/07 03:55:07;;;;;;;20.77;14.90;;;17.40;99.90;16.90;101586;;;;606911;232;24038;-76
2023/09/07 03:57:32;;;;;;;28.00;15.67;;;17.40;99.90;16.90;101579;;;;606289;232;24002;-76
2023/09/07 04:00:00;;;;;;;25.77;16.77;;;17.40;99.90;16.90;101576;;;;606497;232;23991;-76
2023/09/07 04:02:28;;;;;;;23.27;15.07;;;17.40;99.90;16.90;101580;;;;606483;232;23038;-77
2023/09/07 04:04:55;;;;;;;17.40;14.73;;;17.40;99.90;16.90;101577;;;;606467;232;23999;-78
2023/09/07 04:07:24;;;;;;;18.77;14.70;;;17.40;99.90;16.90;101583;;;;606369;232;24062;-78
2023/09/07 04:09:52;;;;;;;24.20;14.53;;;17.40;99.90;16.90;101579;;;;606927;232;24060;-77
2023/09/07 04:12:20;;;;;;;20.53;14.77;;;17.40;99.90;16.90;101585;;;;606865;232;24003;-77
2023/09/07 04:14:49;;;;;;;18.47;13.20;;;17.40;99.90;16.90;101577;;;;606854;232;24011;-77
2023/09/07 04:17:17;;;;;;;20.13;14.13;;;17.40;99.90;16.90;101579;;;;608434;232;24000;-76
2023/09/07 04:19:45;;;;;;;19.47;13.47;;;17.40;99.90;16.90;101573;;;;608057;232;24029;-76
2023/09/07 04:22:13;;;;;;;18.60;12.77;;;17.40;99.90;16.90;101583;;;;607363;232;24032;-78
2023/09/07 04:24:41;;;;;;;19.13;13.23;;;17.40;99.90;16.80;101594;;;;607294;232;24009;-76
2023/09/07 04:27:09;;;;;;;14.83;11.43;;;17.30;99.90;16.80;101585;;;;607152;232;23982;-77
2023/09/07 04:29:37;;;;;;;17.40;11.63;;;17.30;99.90;16.70;101586;;;;607081;232;24073;-76
2023/09/07 04:32:05;;;;;;;18.80;11.20;;;17.20;99.90;16.60;101588;;;;607288;232;24029;-77
2023/09/07 04:34:33;;;;;;;12.13;10.83;;;17.20;99.90;16.60;101593;;;;607004;232;24050;-77
2023/09/07 04:37:01;;;;;;;15.53;11.03;;;17.10;99.90;16.50;101588;;;;606707;232;24075;-77
2023/09/07 04:39:28;;;;;;;18.97;11.23;;;17.10;99.90;16.60;101596;;;;607203;232;23974;-76
2023/09/07 04:41:56;;;;;;;18.42;14.63;;;17.00;99.90;16.50;101600;;;;602005;232;34823;-77
2023/09/07 04:44:24;;;;;;;16.37;12.00;;;17.00;99.90;16.50;101596;;;;607124;232;24026;-76
2023/09/07 04:46:52;;;;;;;16.20;10.70;;;17.00;99.90;16.50;101599;;;;607211;232;23986;-76
2023/09/07 04:49:20;;;;;;;20.07;11.80;;;17.00;99.90;16.50;101603;;;;607096;232;23995;-75
2023/09/07 04:51:49;;;;;;;21.07;10.93;;;17.00;99.90;16.50;101601;;;;606812;232;23969;-76
2023/09/07 04:54:17;;;;;;;25.42;15.77;;;17.00;99.90;16.60;101603;;;;601237;232;34848;-76
2023/09/07 04:56:45;;;;;;;25.67;15.75;;;17.10;99.90;16.60;101597;;;;601337;232;34957;-77
2023/09/07 04:59:14;;;;;;;16.57;12.43;;;17.10;99.90;16.70;101592;;;;606447;232;23017;-76
2023/09/07 05:01:41;;;;;;;15.97;12.50;;;17.10;99.90;16.80;101603;;;;606560;232;24002;-75
2023/09/07 05:04:11;;;;;;;14.77;11.90;;;17.30;99.90;16.80;101602;;;;606464;232;24011;-75
2023/09/07 05:06:43;;;;;;;16.03;11.27;;;17.50;99.90;17.10;101604;;;;606327;232;23992;-75
2023/09/07 05:09:07;;;;;;;20.60;12.43;;;18.20;99.90;17.90;101603;;;;606604;232;24017;-76
2023/09/07 05:11:35;;;;;;;16.30;13.00;;;18.20;99.90;18.90;101604;;;;606861;232;24055;-76
2023/09/07 05:14:03;;;;;;;13.90;11.73;;;19.20;99.90;19.40;101609;;;;606915;232;24101;-76
2023/09/07 05:16:31;;;;;;;11.10;9.90;;;19.80;99.90;19.80;101616;;;;606895;232;23019;-75
2023/09/07 05:18:59;;;;;;;11.77;9.53;;;20.20;99.90;20.00;101618;;;;606980;232;23998;-75
2023/09/07 05:21:27;;;;;;;10.37;8.93;;;20.50;99.90;20.00;101618;;;;606966;232;24001;-74
2023/09/07 05:23:55;;;;;;;10.37;7.87;;;20.60;99.90;20.00;101625;;;;606469;232;24046;-75
2023/09/07 05:26:24;;;;;;;13.67;8.53;;;20.60;99.90;19.90;101622;;;;606598;232;23995;-76
2023/09/07 05:28:51;;;;;;;11.50;8.20;;;20.50;99.90;19.80;101629;;;;608005;232;23997;-76
2023/09/07 05:31:19;;;;;;;9.57;8.63;;;20.40;99.90;19.70;101630;;;;607890;232;24034;-75
2023/09/07 05:33:48;;;;;;;13.10;9.13;;;20.50;99.90;20.10;101626;;;;607427;232;23986;-76
2023/09/07 05:36:17;;;;;;;10.57;9.30;;;21.10;99.90;20.80;101617;;;;607159;232;23062;-76
2023/09/07 05:38:45;;;;;;;9.73;8.70;;;22.00;99.90;21.80;101618;;;;607423;232;25172;-77
2023/09/07 05:41:13;;;;;;;10.57;8.60;;;22.00;99.90;22.70;101624;;;;607470;232;23993;-76
2023/09/07 05:43:41;;;;;;;10.57;7.73;;;23.00;99.90;23.50;101623;;;;607413;232;24001;-76
2023/09/07 05:46:09;;;;;;;9.73;8.07;;;23.80;99.90;23.50;101631;;;;607311;232;24015;-76
2023/09/07 05:48:37;;;;;;;10.47;7.50;;;24.00;99.90;23.20;101627;;;;607160;232;23026;-77
2023/09/07 05:51:05;;;;;;;10.33;7.90;;;23.90;99.90;22.90;101621;;;;607173;232;24017;-76
2023/09/07 05:53:33;;;;;;;8.43;7.27;;;23.50;99.90;22.80;101625;;;;606661;232;24075;-76
2023/09/07 05:56:01;;;;;;;8.13;7.33;;;23.40;99.90;23.20;101624;;;;606819;232;23010;-77
2023/09/07 05:58:29;;;;;;;9.00;5.90;;;23.60;99.90;24.10;101628;;;;606687;232;24013;-75
2023/09/07 06:00:57;;;;;;;5.83;5.30;;;24.30;99.90;25.50;101629;;;;606877;232;23007;-77
2023/09/07 06:03:28;;;;;;;9.17;6.30;;;27.00;99.90;27.00;101630;;;;606724;232;23031;-76
2023/09/07 06:05:54;;;;;;;7.53;5.40;;;27.90;99.90;27.80;101634;;;;606584;232;23023;-76
2023/09/07 06:08:23;;;;;;;6.57;5.40;;;28.30;99.90;27.80;101624;;;;606856;232;24037;-76
2023/09/07 06:10:51;;;;;;;9.10;4.82;;;28.20;99.90;28.10;101641;;;;606361;232;23001;-77
2023/09/07 06:13:18;;;;;;;10.15;6.40;;;28.60;99.90;28.20;101641;;;;606563;232;23024;-77
2023/09/07 06:15:46;;;;;;;10.63;6.30;;;28.60;99.90;28.90;101638;;;;606445;232;23028;-78
2023/09/07 06:18:14;;;;;;;6.78;5.15;;;29.30;99.90;29.90;101638;;;;606677;232;23066;-77
2023/09/07 06:20:42;;;;;;;6.60;4.50;;;30.20;99.90;30.40;101640;;;;606411;232;23004;-77
2023/09/07 06:23:10;;;;;;;4.78;4.35;;;30.70;99.90;30.90;101653;;;;606382;232;23007;-77
2023/09/07 06:25:38;;;;;;;6.22;4.62;;;31.30;99.60;32.20;101657;;;;606404;232;23012;-77
2023/09/07 06:28:06;;;;;;;5.22;4.68;;;32.30;96.20;33.30;101664;;;;606419;232;23052;-76
2023/09/07 06:30:34;;;;;;;4.30;3.92;;;33.30;92.80;34.00;101660;;;;606651;232;23000;-76
2023/09/07 06:33:02;;;;;;;4.32;3.42;;;34.20;89.20;34.20;101660;;;;606461;232;23032;-77
2023/09/07 06:35:30;;;;;;;4.22;3.83;;;34.60;84.40;33.30;101660;;;;606400;232;24045;-76
2023/09/07 06:37:58;;;;;;;6.82;4.30;;;34.10;83.40;32.80;101661;;;;606560;232;23038;-77
2023/09/07 06:40:26;;;;;;;4.50;4.10;;;33.60;83.70;31.80;101659;;;;608398;232;23010;-76
2023/09/07 06:42:53;;;;;;;4.68;4.28;;;32.80;84.80;30.80;101668;;;;608090;232;24042;-77
2023/09/07 06:45:23;;;;;;;6.05;4.50;;;31.80;86.30;30.70;101669;;;;607731;232;23010;-78
2023/09/07 06:47:50;;;;;;;5.40;4.43;;;31.30;88.60;31.80;101668;;;;607556;232;24018;-76
2023/09/07 06:50:18;;;;;;;7.12;4.05;;;31.90;87.30;32.40;101674;;;;607317;232;23035;-77
2023/09/07 06:52:46;;;;;;;4.47;4.15;;;33.60;82.70;33.60;101679;;;;607257;232;24044;-77
2023/09/07 06:55:15;;;;;;;6.40;4.10;;;34.70;80.10;34.60;101677;;;;607053;232;23018;-77
2023/09/07 06:57:43;;;;;;;9.23;3.97;;;35.10;78.10;34.60;101684;;;;606779;232;24090;-77
2023/09/07 07:00:12;;;;;;;6.12;4.20;;;34.50;75.70;33.60;101688;;;;606878;232;23008;-77
2023/09/07 07:02:40;;;;;;;4.40;4.10;;;34.50;75.60;33.30;101685;;;;606772;232;24015;-76
2023/09/07 07:05:09;;;;;;;4.10;3.83;;;34.60;76.70;34.40;101685;;;;606894;232;23035;-76
2023/09/07 07:07:37;;;;;;;4.40;4.00;;;34.50;76.50;35.30;101686;;;;606787;232;23041;-75
2023/09/07 07:10:04;;;;;;;4.78;3.92;;;35.50;74.60;35.60;101689;;;;607239;232;23011;-77
2023/09/07 07:12:34;;;;;;;5.90;4.62;;;35.80;70.20;35.20;101701;;;;607174;232;24051;-77
2023/09/07 07:15:02;;;;;;;5.45;4.32;;;35.60;71.40;35.10;101697;;;;607038;232;23022;-77
2023/09/07 07:17:30;;;;;;;4.22;3.83;;;35.60;71.00;36.30;101699;;;;606888;232;23006;-77
2023/09/07 07:19:58;;;;;;;4.62;3.70;;;36.40;70.80;37.80;101696;;;;606904;232;23060;-77
2023/09/07 07:22:26;;;;;;;7.07;4.20;;;37.80;66.00;38.80;101703;;;;606836;232;23003;-77
2023/09/07 07:24:53;;;;;;;4.87;4.10;;;38.80;61.70;39.30;101703;;;;606913;232;23019;-77
2023/09/07 07:27:21;;;;;;;4.00;3.70;;;39.40;60.10;39.90;101708;;;;606420;232;23040;-77
2023/09/07 07:29:49;;;;;;;6.82;4.25;;;40.00;58.00;38.70;101713;;;;606586;232;23011;-77
2023/09/07 07:32:17;;;;;;;4.65;4.35;;;39.50;57.20;36.80;101703;;;;606333;232;23016;-77
2023/09/07 07:34:49;;;;;;;3.92;3.62;;;37.70;60.10;36.90;101715;;;;606570;232;23012;-78
2023/09/07 07:37:15;;;;;;;4.87;4.03;;;38.30;60.00;38.00;101715;;;;606214;232;23044;-77
2023/09/07 07:39:42;;;;;;;4.82;4.32;;;38.20;59.90;39.00;101724;;;;606400;232;23008;-78
2023/09/07 07:42:10;;;;;;;4.75;4.40;;;39.20;58.60;39.90;101718;;;;606933;232;23019;-77
2023/09/07 07:44:38;;;;;;;4.55;4.20;;;40.00;56.30;40.40;101725;;;;606743;232;23050;-77
2023/09/07 07:47:06;;;;;;;4.70;3.72;;;40.60;54.40;40.20;101721;;;;606902;232;23093;-77
2023/09/07 07:49:35;;;;;;;4.72;4.30;;;40.70;54.40;40.40;101722;;;;606823;232;24055;-77
2023/09/07 07:52:02;;;;;;;3.95;3.75;;;40.90;54.10;40.70;101724;;;;608371;232;22986;-77
2023/09/07 07:54:30;;;;;;;5.15;4.50;;;41.00;53.50;40.80;101716;;;;608107;232;23007;-77
2023/09/07 07:56:58;;;;;;;4.05;3.75;;;41.20;53.00;41.20;101721;;;;607402;232;23001;-77
2023/09/07 07:59:26;;;;;;;4.75;4.22;;;41.60;53.50;42.10;101730;;;;607480;232;23008;-77
2023/09/07 08:01:54;;;;;;;4.45;4.15;;;42.30;51.60;42.40;101727;;;;607522;232;23019;-77
2023/09/07 08:04:22;;;;;;;4.50;4.12;;;42.70;51.60;42.80;101727;;;;608387;232;23079;-76
2023/09/07 08:06:50;;;;;;;7.22;4.22;;;43.20;51.00;43.10;101728;;;;608126;232;23050;-77
2023/09/07 08:09:18;;;;;;;11.12;4.60;;;43.50;49.60;42.90;101722;;;;607416;232;23063;-77
2023/09/07 08:11:47;;;;;;;6.05;4.25;;;43.20;49.30;42.30;101727;;;;607531;232;23014;-78
2023/09/07 08:14:15;;;;;;;9.93;4.90;;;43.10;49.20;41.60;101731;;;;607258;232;22989;-78
2023/09/07 08:16:43;;;;;;;5.50;3.92;;;42.50;49.90;41.30;101740;;;;607233;232;23003;-78
2023/09/07 08:19:11;;;;;;;3.97;3.67;;;42.20;50.10;41.30;101736;;;;607174;232;22991;-76
2023/09/07 08:21:42;;;;;;;4.68;4.20;;;42.20;50.50;41.60;101738;;;;607275;232;23006;-77
2023/09/07 08:24:08;;;;;;;7.15;4.43;;;42.60;50.40;42.10;101737;;;;607140;232;23008;-77
2023/09/07 08:26:37;;;;;;;4.57;4.00;;;43.20;49.20;42.80;101739;;;;606947;232;23020;-76
2023/09/07 08:29:08;;;;;;;6.28;4.25;;;43.10;49.00;43.30;101735;;;;606401;232;23020;-77
2023/09/07 08:31:38;;;;;;;7.75;3.72;;;43.70;48.60;43.80;101735;;;;606319;232;23026;-78
2023/09/07 08:34:09;;;;;;;7.10;4.53;;;44.80;47.70;44.30;101738;;;;606475;232;23001;-78
2023/09/07 08:36:36;;;;;;;5.47;4.55;;;45.30;47.20;44.70;101741;;;;606328;232;23034;-78
2023/09/07 08:39:12;;;;;;;5.72;4.05;;;45.70;46.40;45.00;101737;;;;606409;232;22999;-78
2023/09/07 08:41:43;;;;;;;5.47;3.87;;;45.70;46.30;45.30;101733;;;;606119;232;23017;-77
2023/09/07 08:44:22;;;;;;;4.30;3.90;;;46.40;44.90;45.50;101730;;;;606827;232;23011;-77
2023/09/07 08:46:49;;;;;;;6.95;4.12;;;46.30;44.80;45.30;101737;;;;606810;232;23045;-77
2023/09/07 08:49:19;;;;;;;5.10;4.60;;;46.40;44.60;45.10;101738;;;;606787;232;23046;-77
2023/09/07 08:51:49;;;;;;;6.12;4.28;;;46.30;44.40;44.70;101732;;;;606845;232;23035;-77
2023/09/07 08:54:13;;;;;;;4.93;4.53;;;46.00;44.80;45.00;101737;;;;606585;232;23031;-77
2023/09/07 08:56:41;;;;;;;4.80;4.40;;;46.10;44.80;45.40;101745;;;;606880;232;23061;-76
2023/09/07 08:59:09;;;;;;;6.20;4.25;;;46.40;44.10;44.60;101734;;;;606409;232;23018;-77
2023/09/07 09:01:37;;;;;;;11.82;4.90;;;46.10;44.30;44.90;101745;;;;606666;230;23023;-77
2023/09/07 09:04:05;;;;;;;7.55;4.93;;;46.10;45.20;45.50;101754;;;;608100;232;23031;-77
2023/09/07 09:06:33;;;;;;;5.25;4.43;;;46.60;44.30;45.80;101758;;;;607479;232;23013;-77
2023/09/07 09:09:01;;;;;;;7.55;4.50;;;46.90;43.70;45.30;101756;;;;607185;232;23023;-77
2023/09/07 09:11:29;;;;;;;5.80;4.70;;;46.70;43.30;44.80;101755;;;;607201;232;23034;-78
2023/09/07 09:13:57;;;;;;;5.03;4.57;;;45.70;44.30;44.20;101747;;;;607586;232;23013;-77
2023/09/07 09:16:26;;;;;;;4.68;4.28;;;45.10;45.00;43.50;101741;;;;607375;232;23059;-77
2023/09/07 09:18:57;;;;;;;7.05;4.40;;;45.10;44.90;43.40;101744;;;;607488;232;23028;-78
2023/09/07 09:21:25;;;;;;;7.10;4.72;;;45.00;45.30;43.10;101737;;;;607174;232;23023;-77
2023/09/07 09:23:52;;;;;;;7.70;4.37;;;44.80;45.90;43.60;101733;;;;606928;232;23028;-75
2023/09/07 09:26:20;;;;;;;5.20;4.78;;;45.00;45.70;44.10;101733;;;;606986;232;23025;-77
2023/09/07 09:28:50;;;;;;;6.35;4.87;;;45.60;44.60;44.20;101732;;;;607254;232;23004;-77
2023/09/07 09:31:18;;;;;;;9.82;4.93;;;45.40;45.00;43.80;101737;;;;606812;232;23062;-77
2023/09/07 09:33:53;;;;;;;5.28;4.72;;;45.40;44.90;43.20;101736;;;;606763;232;23014;-77
2023/09/07 09:36:16;;;;;;;5.20;4.70;;;44.80;45.80;43.10;101731;;;;606215;232;23024;-76
2023/09/07 09:38:45;;;;;;;8.23;4.60;;;45.10;45.40;43.70;101724;;;;606639;232;23065;-77
2023/09/07 09:41:14;;;;;;;8.55;4.18;;;45.40;45.00;43.90;101725;;;;605959;232;23012;-77
2023/09/07 09:43:45;;;;;;;8.52;5.30;;;45.40;45.00;44.00;101728;;;;606940;232;23030;-76
2023/09/07 09:46:10;;;;;;;16.83;5.43;;;45.50;44.90;44.00;101721;;;;606786;232;23068;-77
2023/09/07 09:48:38;;;;;;;8.23;4.85;;;45.60;45.20;44.00;101720;;;;606865;232;23000;-77
2023/09/07 09:51:06;;;;;;;6.18;5.00;;;45.60;44.70;43.80;101726;;;;606746;232;23075;-76
2023/09/07 09:53:34;;;;;;;7.65;5.50;;;45.60;44.70;44.00;101730;;;;595279;237;23038;-78
2023/09/07 09:56:02;;;;;;;16.05;5.20;;;45.80;45.10;44.10;101730;;;;595183;237;23065;-77
2023/09/07 09:58:33;;;;;;;11.95;5.25;;;45.90;44.60;42.50;101733;;;;595478;237;23048;-77
2023/09/07 10:00:58;;;;;;;10.05;5.53;;;44.90;44.90;41.40;101728;;;;589903;237;34993;-77
2023/09/07 10:03:30;;;;;;;12.93;5.30;;;43.60;46.60;41.30;101728;;;;594714;237;23036;-77
2023/09/07 10:05:57;;;;;;;13.02;4.78;;;43.30;47.40;41.90;101730;;;;594749;237;23083;-77
2023/09/07 10:08:25;;;;;;;5.07;4.68;;;43.30;47.10;41.20;101733;;;;594219;237;23076;-77
2023/09/07 10:10:54;;;;;;;5.82;4.68;;;43.20;46.70;40.30;101732;;;;595320;237;23101;-78
2023/09/07 10:13:30;;;;;;;7.30;4.18;;;42.50;47.30;38.80;101733;;;;593981;235;23037;-77
2023/09/07 10:16:07;;;;;;;9.50;4.57;;;41.20;48.80;36.80;101725;;;;596570;236;24087;-77
2023/09/07 10:18:35;;;;;;;6.87;4.50;;;39.20;51.30;35.20;101729;;;;596106;237;24072;-76
2023/09/07 10:21:06;;;;;;;15.98;5.37;;;37.30;53.90;33.70;101728;;;;596150;237;24146;-76
2023/09/07 10:23:43;;;;;;;9.38;4.50;;;35.60;56.70;32.60;101723;;;;595727;237;23056;-76
2023/09/07 10:26:16;;;;;;;7.78;5.35;;;34.20;59.00;31.70;101724;;;;595957;237;23103;-77
2023/09/07 10:28:45;;;;;;;8.65;4.75;;;32.10;64.70;31.10;101722;;;;595972;237;23074;-77
2023/09/07 10:31:16;;;;;;;10.88;5.37;;;32.00;64.60;30.40;101718;;;;595901;237;24300;-76
2023/09/07 10:33:44;;;;;;;27.23;5.97;;;30.70;68.40;29.80;101718;;;;595568;237;24167;-75
2023/09/07 10:36:24;;;;;;;9.60;3.97;;;30.60;68.30;29.20;101715;;;;595355;237;24052;-75
2023/09/07 10:38:54;;;;;;;10.20;4.85;;;30.00;70.60;28.30;101720;;;;595722;237;23101;-75
2023/09/07 10:41:18;;;;;;;9.75;5.25;;;29.20;73.50;27.50;101707;;;;593599;237;24118;-75
2023/09/07 10:43:56;;;;;;;13.07;5.57;;;28.30;76.70;27.10;101704;;;;595617;237;24030;-75
2023/09/07 10:46:20;;;;;;;17.50;6.32;;;27.80;79.60;26.70;101710;;;;595309;237;23036;-76
2023/09/07 10:48:51;;;;;;;15.17;6.53;;;27.30;81.90;26.50;101704;;;;595512;237;23041;-75
2023/09/07 10:51:21;;;;;;;16.63;5.87;;;27.10;83.80;26.20;101712;;;;595324;237;24052;-76
2023/09/07 10:53:46;;;;;;;6.10;5.50;;;26.80;85.90;25.80;101702;;;;595235;237;23039;-76
2023/09/07 10:56:15;;;;;;;17.73;6.50;;;26.00;90.00;25.50;101696;;;;595495;237;23061;-75
2023/09/07 10:58:44;;;;;;;10.73;4.97;;;25.80;91.30;25.30;101700;;;;595397;237;23034;-75
2023/09/07 11:01:12;;;;;;;6.00;4.77;;;25.60;92.00;25.00;101700;;;;595278;237;23032;-76
2023/09/07 11:03:40;;;;;;;17.13;6.27;;;25.50;91.90;24.70;101702;;;;595000;237;24155;-77
2023/09/07 11:06:14;;;;;;;9.57;5.63;;;25.20;93.00;24.60;101695;;;;595390;237;24010;-75